sensor_id;sensor_type;location;lat;lon;timestamp;temperature;humidity
49901;DHT22;35789;48.414;12.768;2023-07-31T00:00:00;16.5;96.0
49901;DHT22;35789;48.414;12.768;2023-07-31T00:05:00;16.4;96.9
49901;DHT22;35789;48.414;12.768;2023-07-31T00:10:00;16.3;95.9
49901;DHT22;35789;48.414;12.768;2023-07-31T00:15:00;16.2;97.0
49901;DHT22;35789;48.414;12.768;2023-07-31T00:20:00;16.0;97.2
49901;DHT22;35789;48.414;12.768;2023-07-31T00:25:00;16.0;96.7
49901;DHT22;35789;48.414;12.768;2023-07-31T00:30:00;15.9;97.7
49901;DHT22;35789;48.414;12.768;2023-07-31T00:35:00;15.8;96.6
49901;DHT22;35789;48.414;12.768;2023-07-31T00:40:00;15.7;97.1
49901;DHT22;35789;48.414;12.768;2023-07-31T00:45:00;15.7;97.0
49901;DHT22;35789;48.414;12.768;2023-07-31T00:50:00;15.5;96.6
49901;DHT22;35789;48.414;12.768;2023-07-31T00:55:00;15.4;96.3
49901;DHT22;35789;48.414;12.768;2023-07-31T01:00:00;15.2;97.4
49901;DHT22;35789;48.414;12.768;2023-07-31T01:05:00;15.0;97.1
49901;DHT22;35789;48.414;12.768;2023-07-31T01:10:02;14.9;98.4
49901;DHT22;35789;48.414;12.768;2023-07-31T01:15:02;14.8;98.2
49901;DHT22;35789;48.414;12.768;2023-07-31T01:20:01;14.9;99.6
49901;DHT22;35789;48.414;12.768;2023-07-31T01:25:04;14.8;98.3
49901;DHT22;35789;48.414;12.768;2023-07-31T01:30:03;14.7;98.6
49901;DHT22;35789;48.414;12.768;2023-07-31T01:35:00;14.7;98.7
49901;DHT22;35789;48.414;12.768;2023-07-31T01:40:00;14.6;99.3
49901;DHT22;35789;48.414;12.768;2023-07-31T01:45:00;14.6;99.1
49901;DHT22;35789;48.414;12.768;2023-07-31T01:50:00;14.5;99.8
49901;DHT22;35789;48.414;12.768;2023-07-31T01:55:00;14.3;99.9
49901;DHT22;35789;48.414;12.768;2023-07-31T02:00:00;14.2;99.9
49901;DHT22;35789;48.414;12.768;2023-07-31T02:05:00;14.2;99.9
49901;DHT22;35789;48.414;12.768;2023-07-31T02:10:00;14.2;99.9
49901;DHT22;35789;48.414;12.768;2023-07-31T02:15:00;14.2;99.9
49901;DHT22;35789;48.414;12.768;2023-07-31T02:20:00;14.1;99.9
49901;DHT22;35789;48.414;12.768;2023-07-31T02:25:00;14.1;99.9
49901;DHT22;35789;48.414;12.768;2023-07-31T02:30:00;14.2;99.9
49901;DHT22;35789;48.414;12.768;2023-07-31T02:35:00;14.2;99.9
49901;DHT22;35789;48.414;12.768;2023-07-31T02:40:00;14.2;99.9
49901;DHT22;35789;48.414;12.768;2023-07-31T02:45:00;14.1;99.9
49901;DHT22;35789;48.414;12.768;2023-07-31T02:50:00;14.0;99.9
49901;DHT22;35789;48.414;12.768;2023-07-31T02:55:00;13.9;99.9
49901;DHT22;35789;48.414;12.768;2023-07-31T03:00:00;13.8;99.9
49901;DHT22;35789;48.414;12.768;2023-07-31T03:05:00;13.8;99.9
49901;DHT22;35789;48.414;12.768;2023-07-31T03:10:00;13.7;99.9
49901;DHT22;35789;48.414;12.768;2023-07-31T03:15:00;13.6;99.9
49901;DHT22;35789;48.414;12.768;2023-07-31T03:20:00;13.5;99.9
49901;DHT22;35789;48.414;12.768;2023-07-31T03:25:00;13.5;99.9
49901;DHT22;35789;48.414;12.768;2023-07-31T03:30:00;13.3;99.9
49901;DHT22;35789;48.414;12.768;2023-07-31T03:35:00;13.3;99.9
49901;DHT22;35789;48.414;12.768;2023-07-31T03:40:00;13.2;99.9
49901;DHT22;35789;48.414;12.768;2023-07-31T03:45:00;13.2;99.9
49901;DHT22;35789;48.414;12.768;2023-07-31T03:50:00;13.1;99.9
49901;DHT22;35789;48.414;12.768;2023-07-31T03:55:00;13.0;99.9
49901;DHT22;35789;48.414;12.768;2023-07-31T04:00:00;12.9;99.9
49901;DHT22;35789;48.414;12.768;2023-07-31T04:05:00;12.9;99.9
49901;DHT22;35789;48.414;12.768;2023-07-31T04:10:00;12.9;99.9
49901;DHT22;35789;48.414;12.768;2023-07-31T04:15:00;12.9;99.9
49901;DHT22;35789;48.414;12.768;2023-07-31T04:20:00;12.9;99.9
49901;DHT22;35789;48.414;12.768;2023-07-31T04:25:00;12.9;99.9
49901;DHT22;35789;48.414;12.768;2023-07-31T04:30:00;12.8;99.9
49901;DHT22;35789;48.414;12.768;2023-07-31T04:35:00;12.9;99.9
49901;DHT22;35789;48.414;12.768;2023-07-31T04:40:00;12.9;99.9
49901;DHT22;35789;48.414;12.768;2023-07-31T04:45:00;12.9;99.9
49901;DHT22;35789;48.414;12.768;2023-07-31T04:50:00;13.0;99.9
49901;DHT22;35789;48.414;12.768;2023-07-31T04:55:00;13.0;99.9
49901;DHT22;35789;48.414;12.768;2023-07-31T05:00:00;13.0;99.9
49901;DHT22;35789;48.414;12.768;2023-07-31T05:05:00;13.1;99.9
49901;DHT22;35789;48.414;12.768;2023-07-31T05:10:00;13.2;99.9
49901;DHT22;35789;48.414;12.768;2023-07-31T05:15:00;13.3;99.9
49901;DHT22;35789;48.414;12.768;2023-07-31T05:20:00;13.3;99.9
49901;DHT22;35789;48.414;12.768;2023-07-31T05:25:00;13.4;99.9
49901;DHT22;35789;48.414;12.768;2023-07-31T05:30:00;13.5;99.9
49901;DHT22;35789;48.414;12.768;2023-07-31T05:35:00;13.7;99.9
49901;DHT22;35789;48.414;12.768;2023-07-31T05:40:00;13.8;99.9
49901;DHT22;35789;48.414;12.768;2023-07-31T05:45:00;13.9;99.9
49901;DHT22;35789;48.414;12.768;2023-07-31T05:50:00;14.0;99.9
49901;DHT22;35789;48.414;12.768;2023-07-31T05:55:00;14.2;99.9
49901;DHT22;35789;48.414;12.768;2023-07-31T06:00:00;14.4;99.9
49901;DHT22;35789;48.414;12.768;2023-07-31T06:05:00;14.5;99.9
49901;DHT22;35789;48.414;12.768;2023-07-31T06:10:00;14.8;99.9
49901;DHT22;35789;48.414;12.768;2023-07-31T06:15:00;14.9;99.9
49901;DHT22;35789;48.414;12.768;2023-07-31T06:20:00;15.1;99.9
49901;DHT22;35789;48.414;12.768;2023-07-31T06:25:00;15.3;99.9
49901;DHT22;35789;48.414;12.768;2023-07-31T06:30:00;15.6;99.9
49901;DHT22;35789;48.414;12.768;2023-07-31T06:35:00;15.9;99.9
49901;DHT22;35789;48.414;12.768;2023-07-31T06:40:00;16.2;99.9
49901;DHT22;35789;48.414;12.768;2023-07-31T06:45:00;16.5;99.9
49901;DHT22;35789;48.414;12.768;2023-07-31T06:50:00;16.8;99.9
49901;DHT22;35789;48.414;12.768;2023-07-31T06:55:00;17.2;98.7
49901;DHT22;35789;48.414;12.768;2023-07-31T07:00:00;17.5;97.7
49901;DHT22;35789;48.414;12.768;2023-07-31T07:05:00;17.7;98.1
49901;DHT22;35789;48.414;12.768;2023-07-31T07:10:00;17.9;97.8
49901;DHT22;35789;48.414;12.768;2023-07-31T07:15:00;18.1;96.9
49901;DHT22;35789;48.414;12.768;2023-07-31T07:20:00;18.2;97.4
49901;DHT22;35789;48.414;12.768;2023-07-31T07:25:00;18.3;96.9
49901;DHT22;35789;48.414;12.768;2023-07-31T07:30:00;18.5;96.1
49901;DHT22;35789;48.414;12.768;2023-07-31T07:35:00;18.6;96.2
49901;DHT22;35789;48.414;12.768;2023-07-31T07:40:00;18.7;95.5
49901;DHT22;35789;48.414;12.768;2023-07-31T07:45:00;18.7;95.7
49901;DHT22;35789;48.414;12.768;2023-07-31T07:50:00;18.8;94.7
49901;DHT22;35789;48.414;12.768;2023-07-31T07:55:00;18.9;94.7
49901;DHT22;35789;48.414;12.768;2023-07-31T08:00:00;18.9;94.8
49901;DHT22;35789;48.414;12.768;2023-07-31T08:05:00;19.0;94.7
49901;DHT22;35789;48.414;12.768;2023-07-31T08:10:00;19.2;94.6
49901;DHT22;35789;48.414;12.768;2023-07-31T08:15:00;19.2;94.6
49901;DHT22;35789;48.414;12.768;2023-07-31T08:20:00;19.4;94.0
49901;DHT22;35789;48.414;12.768;2023-07-31T08:25:00;19.5;93.9
49901;DHT22;35789;48.414;12.768;2023-07-31T08:30:00;19.5;93.8
49901;DHT22;35789;48.414;12.768;2023-07-31T08:35:00;19.6;93.5
49901;DHT22;35789;48.414;12.768;2023-07-31T08:40:00;19.6;93.6
49901;DHT22;35789;48.414;12.768;2023-07-31T08:45:00;19.7;92.4
49901;DHT22;35789;48.414;12.768;2023-07-31T08:50:00;19.8;92.8
49901;DHT22;35789;48.414;12.768;2023-07-31T08:55:00;20.1;92.6
49901;DHT22;35789;48.414;12.768;2023-07-31T09:00:00;20.4;93.1
49901;DHT22;35789;48.414;12.768;2023-07-31T09:05:00;20.5;93.3
49901;DHT22;35789;48.414;12.768;2023-07-31T09:10:00;20.8;93.2
49901;DHT22;35789;48.414;12.768;2023-07-31T09:15:00;20.6;93.4
49901;DHT22;35789;48.414;12.768;2023-07-31T09:25:05;20.8;92.2
49901;DHT22;35789;48.414;12.768;2023-07-31T09:30:00;21.0;92.6
49901;DHT22;35789;48.414;12.768;2023-07-31T09:35:00;21.3;91.8
49901;DHT22;35789;48.414;12.768;2023-07-31T09:40:00;21.5;91.1
49901;DHT22;35789;48.414;12.768;2023-07-31T09:45:08;21.4;91.9
49901;DHT22;35789;48.414;12.768;2023-07-31T09:50:00;21.4;91.3
49901;DHT22;35789;48.414;12.768;2023-07-31T09:55:00;21.6;91.4
49901;DHT22;35789;48.414;12.768;2023-07-31T10:00:00;21.8;91.0
49901;DHT22;35789;48.414;12.768;2023-07-31T10:05:01;21.7;91.8
49901;DHT22;35789;48.414;12.768;2023-07-31T10:10:00;21.6;90.0
49901;DHT22;35789;48.414;12.768;2023-07-31T10:15:00;21.5;90.8
49901;DHT22;35789;48.414;12.768;2023-07-31T10:20:00;21.4;90.5
49901;DHT22;35789;48.414;12.768;2023-07-31T10:25:00;21.5;91.1
49901;DHT22;35789;48.414;12.768;2023-07-31T10:30:00;21.8;90.3
49901;DHT22;35789;48.414;12.768;2023-07-31T10:35:00;21.9;89.8
49901;DHT22;35789;48.414;12.768;2023-07-31T10:40:02;22.0;90.2
49901;DHT22;35789;48.414;12.768;2023-07-31T10:45:01;22.1;89.5
49901;DHT22;35789;48.414;12.768;2023-07-31T11:05:08;22.0;89.0
49901;DHT22;35789;48.414;12.768;2023-07-31T11:10:00;22.2;88.7
49901;DHT22;35789;48.414;12.768;2023-07-31T11:15:00;22.2;88.6
49901;DHT22;35789;48.414;12.768;2023-07-31T11:20:00;22.5;83.3
49901;DHT22;35789;48.414;12.768;2023-07-31T11:25:00;22.6;83.1
49901;DHT22;35789;48.414;12.768;2023-07-31T11:30:00;22.9;85.4
49901;DHT22;35789;48.414;12.768;2023-07-31T11:35:00;23.3;85.9
49901;DHT22;35789;48.414;12.768;2023-07-31T11:40:00;23.4;86.5
49901;DHT22;35789;48.414;12.768;2023-07-31T11:45:02;23.6;81.9
49901;DHT22;35789;48.414;12.768;2023-07-31T11:50:00;23.2;82.6
49901;DHT22;35789;48.414;12.768;2023-07-31T11:55:00;24.0;81.8
49901;DHT22;35789;48.414;12.768;2023-07-31T12:00:00;24.6;78.0
49901;DHT22;35789;48.414;12.768;2023-07-31T12:05:00;25.1;78.6
49901;DHT22;35789;48.414;12.768;2023-07-31T12:10:00;25.3;79.6
49901;DHT22;35789;48.414;12.768;2023-07-31T12:15:00;25.4;78.0
49901;DHT22;35789;48.414;12.768;2023-07-31T12:20:00;25.7;79.8
49901;DHT22;35789;48.414;12.768;2023-07-31T12:25:00;25.4;79.9
49901;DHT22;35789;48.414;12.768;2023-07-31T12:30:00;24.7;81.1
49901;DHT22;35789;48.414;12.768;2023-07-31T12:35:00;24.2;80.8
49901;DHT22;35789;48.414;12.768;2023-07-31T12:40:00;23.8;79.8
49901;DHT22;35789;48.414;12.768;2023-07-31T12:45:00;23.7;77.9
49901;DHT22;35789;48.414;12.768;2023-07-31T12:50:00;23.5;80.0
49901;DHT22;35789;48.414;12.768;2023-07-31T12:55:00;23.5;82.2
49901;DHT22;35789;48.414;12.768;2023-07-31T13:00:00;23.4;82.5
49901;DHT22;35789;48.414;12.768;2023-07-31T13:05:00;23.4;84.2
49901;DHT22;35789;48.414;12.768;2023-07-31T13:10:00;23.6;82.0
49901;DHT22;35789;48.414;12.768;2023-07-31T13:15:00;23.5;80.5
49901;DHT22;35789;48.414;12.768;2023-07-31T13:20:00;23.5;80.5
49901;DHT22;35789;48.414;12.768;2023-07-31T13:25:00;23.5;81.1
49901;DHT22;35789;48.414;12.768;2023-07-31T13:30:00;23.7;82.2
49901;DHT22;35789;48.414;12.768;2023-07-31T13:35:00;23.7;83.2
49901;DHT22;35789;48.414;12.768;2023-07-31T13:40:00;24.1;79.7
49901;DHT22;35789;48.414;12.768;2023-07-31T13:45:00;24.2;80.9
49901;DHT22;35789;48.414;12.768;2023-07-31T13:50:00;24.1;82.1
49901;DHT22;35789;48.414;12.768;2023-07-31T13:55:00;24.2;79.7
49901;DHT22;35789;48.414;12.768;2023-07-31T14:00:00;24.3;81.3
49901;DHT22;35789;48.414;12.768;2023-07-31T14:05:00;24.3;82.2
49901;DHT22;35789;48.414;12.768;2023-07-31T14:10:00;24.3;83.2
49901;DHT22;35789;48.414;12.768;2023-07-31T14:15:00;24.4;81.4
49901;DHT22;35789;48.414;12.768;2023-07-31T14:20:00;24.5;82.7
49901;DHT22;35789;48.414;12.768;2023-07-31T14:25:00;24.3;79.6
49901;DHT22;35789;48.414;12.768;2023-07-31T14:30:00;24.3;84.6
49901;DHT22;35789;48.414;12.768;2023-07-31T14:35:00;24.4;82.5
49901;DHT22;35789;48.414;12.768;2023-07-31T14:40:00;24.3;81.5
49901;DHT22;35789;48.414;12.768;2023-07-31T14:45:00;24.3;80.6
49901;DHT22;35789;48.414;12.768;2023-07-31T14:50:00;24.1;81.7
49901;DHT22;35789;48.414;12.768;2023-07-31T14:55:00;24.2;77.9
49901;DHT22;35789;48.414;12.768;2023-07-31T15:00:00;24.3;76.5
49901;DHT22;35789;48.414;12.768;2023-07-31T15:05:00;24.4;75.6
49901;DHT22;35789;48.414;12.768;2023-07-31T15:10:00;24.4;77.4
49901;DHT22;35789;48.414;12.768;2023-07-31T15:15:00;24.5;74.9
49901;DHT22;35789;48.414;12.768;2023-07-31T15:20:00;24.3;74.8
49901;DHT22;35789;48.414;12.768;2023-07-31T15:25:00;24.3;77.7
49901;DHT22;35789;48.414;12.768;2023-07-31T15:30:00;24.2;76.9
49901;DHT22;35789;48.414;12.768;2023-07-31T15:35:00;23.8;77.6
49901;DHT22;35789;48.414;12.768;2023-07-31T15:40:00;23.6;78.8
49901;DHT22;35789;48.414;12.768;2023-07-31T15:45:00;23.6;77.8
49901;DHT22;35789;48.414;12.768;2023-07-31T15:50:00;23.6;78.5
49901;DHT22;35789;48.414;12.768;2023-07-31T15:55:00;23.7;77.3
49901;DHT22;35789;48.414;12.768;2023-07-31T16:00:00;23.4;82.9
49901;DHT22;35789;48.414;12.768;2023-07-31T16:05:00;23.4;80.4
49901;DHT22;35789;48.414;12.768;2023-07-31T16:10:00;23.2;80.6
49901;DHT22;35789;48.414;12.768;2023-07-31T16:15:00;23.2;82.9
49901;DHT22;35789;48.414;12.768;2023-07-31T16:20:00;23.0;85.3
49901;DHT22;35789;48.414;12.768;2023-07-31T16:25:00;23.0;82.3
49901;DHT22;35789;48.414;12.768;2023-07-31T16:30:00;23.1;82.0
49901;DHT22;35789;48.414;12.768;2023-07-31T16:35:00;23.1;82.6
49901;DHT22;35789;48.414;12.768;2023-07-31T16:40:00;23.0;86.4
49901;DHT22;35789;48.414;12.768;2023-07-31T16:45:00;22.9;86.1
49901;DHT22;35789;48.414;12.768;2023-07-31T16:50:00;22.8;84.3
49901;DHT22;35789;48.414;12.768;2023-07-31T16:55:00;22.6;86.8
49901;DHT22;35789;48.414;12.768;2023-07-31T17:00:00;22.7;85.1
49901;DHT22;35789;48.414;12.768;2023-07-31T17:05:00;22.6;86.5
49901;DHT22;35789;48.414;12.768;2023-07-31T17:10:00;22.5;88.7
49901;DHT22;35789;48.414;12.768;2023-07-31T17:15:00;22.5;85.2
49901;DHT22;35789;48.414;12.768;2023-07-31T17:20:00;22.6;83.2
49901;DHT22;35789;48.414;12.768;2023-07-31T17:25:00;22.5;84.3
49901;DHT22;35789;48.414;12.768;2023-07-31T17:30:00;22.4;87.3
49901;DHT22;35789;48.414;12.768;2023-07-31T17:35:00;22.3;86.4
49901;DHT22;35789;48.414;12.768;2023-07-31T17:40:00;22.3;86.5
49901;DHT22;35789;48.414;12.768;2023-07-31T17:45:00;22.3;86.0
49901;DHT22;35789;48.414;12.768;2023-07-31T17:50:00;22.3;85.5
49901;DHT22;35789;48.414;12.768;2023-07-31T17:55:00;22.2;86.1
49901;DHT22;35789;48.414;12.768;2023-07-31T18:00:00;22.2;83.9
49901;DHT22;35789;48.414;12.768;2023-07-31T18:05:00;22.1;86.7
49901;DHT22;35789;48.414;12.768;2023-07-31T18:10:00;22.0;86.6
49901;DHT22;35789;48.414;12.768;2023-07-31T18:15:00;21.7;86.9
49901;DHT22;35789;48.414;12.768;2023-07-31T18:20:00;21.6;89.4
49901;DHT22;35789;48.414;12.768;2023-07-31T18:25:00;21.5;87.7
49901;DHT22;35789;48.414;12.768;2023-07-31T18:30:00;21.5;88.4
49901;DHT22;35789;48.414;12.768;2023-07-31T18:35:00;21.5;87.8
49901;DHT22;35789;48.414;12.768;2023-07-31T18:40:00;21.5;86.3
49901;DHT22;35789;48.414;12.768;2023-07-31T18:45:00;21.4;89.2
49901;DHT22;35789;48.414;12.768;2023-07-31T18:50:00;21.1;90.0
49901;DHT22;35789;48.414;12.768;2023-07-31T18:55:00;20.9;89.4
49901;DHT22;35789;48.414;12.768;2023-07-31T19:00:00;20.7;91.2
49901;DHT22;35789;48.414;12.768;2023-07-31T19:05:00;20.4;90.5
49901;DHT22;35789;48.414;12.768;2023-07-31T19:10:00;20.4;90.8
49901;DHT22;35789;48.414;12.768;2023-07-31T19:15:00;20.3;90.7
49901;DHT22;35789;48.414;12.768;2023-07-31T19:20:00;20.1;91.5
49901;DHT22;35789;48.414;12.768;2023-07-31T19:25:00;19.9;91.7
49901;DHT22;35789;48.414;12.768;2023-07-31T19:30:00;19.6;92.3
49901;DHT22;35789;48.414;12.768;2023-07-31T19:35:00;19.5;93.3
49901;DHT22;35789;48.414;12.768;2023-07-31T19:40:00;19.3;93.2
49901;DHT22;35789;48.414;12.768;2023-07-31T19:45:00;19.1;93.8
49901;DHT22;35789;48.414;12.768;2023-07-31T19:50:00;18.8;93.7
49901;DHT22;35789;48.414;12.768;2023-07-31T19:55:00;18.7;94.0
49901;DHT22;35789;48.414;12.768;2023-07-31T20:00:00;18.5;95.6
49901;DHT22;35789;48.414;12.768;2023-07-31T20:05:00;18.4;95.7
49901;DHT22;35789;48.414;12.768;2023-07-31T20:10:00;18.3;95.6
49901;DHT22;35789;48.414;12.768;2023-07-31T20:15:00;18.2;96.8
49901;DHT22;35789;48.414;12.768;2023-07-31T20:20:00;18.1;96.3
49901;DHT22;35789;48.414;12.768;2023-07-31T20:25:00;18.1;96.2
49901;DHT22;35789;48.414;12.768;2023-07-31T20:30:00;18.1;96.5
49901;DHT22;35789;48.414;12.768;2023-07-31T20:35:00;17.9;96.2
49901;DHT22;35789;48.414;12.768;2023-07-31T20:40:04;17.9;97.6
49901;DHT22;35789;48.414;12.768;2023-07-31T20:45:00;17.8;97.8
49901;DHT22;35789;48.414;12.768;2023-07-31T20:50:00;17.7;97.1
49901;DHT22;35789;48.414;12.768;2023-07-31T20:55:00;17.6;97.9
49901;DHT22;35789;48.414;12.768;2023-07-31T21:00:00;17.5;98.3
49901;DHT22;35789;48.414;12.768;2023-07-31T21:05:00;17.4;98.9
49901;DHT22;35789;48.414;12.768;2023-07-31T21:10:00;17.4;98.9
49901;DHT22;35789;48.414;12.768;2023-07-31T21:15:00;17.3;98.3
49901;DHT22;35789;48.414;12.768;2023-07-31T21:20:00;17.2;98.8
49901;DHT22;35789;48.414;12.768;2023-07-31T21:25:00;17.1;99.3
49901;DHT22;35789;48.414;12.768;2023-07-31T21:30:00;17.0;99.5
49901;DHT22;35789;48.414;12.768;2023-07-31T21:35:00;17.0;99.3
49901;DHT22;35789;48.414;12.768;2023-07-31T21:40:00;16.9;98.7
49901;DHT22;35789;48.414;12.768;2023-07-31T21:45:00;16.8;99.3
49901;DHT22;35789;48.414;12.768;2023-07-31T21:50:00;16.8;99.7
49901;DHT22;35789;48.414;12.768;2023-07-31T21:55:00;16.7;99.6
49901;DHT22;35789;48.414;12.768;2023-07-31T22:00:00;16.7;99.9
49901;DHT22;35789;48.414;12.768;2023-07-31T22:05:00;16.7;99.9
49901;DHT22;35789;48.414;12.768;2023-07-31T22:10:00;16.7;99.9
49901;DHT22;35789;48.414;12.768;2023-07-31T22:15:00;16.8;99.9
49901;DHT22;35789;48.414;12.768;2023-07-31T22:20:00;16.8;99.9
49901;DHT22;35789;48.414;12.768;2023-07-31T22:25:00;16.8;99.9
49901;DHT22;35789;48.414;12.768;2023-07-31T22:30:00;16.8;99.9
49901;DHT22;35789;48.414;12.768;2023-07-31T22:35:00;16.9;99.9
49901;DHT22;35789;48.414;12.768;2023-07-31T22:40:00;17.0;99.9
49901;DHT22;35789;48.414;12.768;2023-07-31T22:45:00;17.0;99.9
49901;DHT22;35789;48.414;12.768;2023-07-31T22:50:00;17.0;99.9
49901;DHT22;35789;48.414;12.768;2023-07-31T22:55:00;17.0;99.9
49901;DHT22;35789;48.414;12.768;2023-07-31T23:00:00;17.1;99.9
49901;DHT22;35789;48.414;12.768;2023-07-31T23:05:00;17.0;99.9
49901;DHT22;35789;48.414;12.768;2023-07-31T23:10:00;16.9;99.9
49901;DHT22;35789;48.414;12.768;2023-07-31T23:15:00;16.8;99.9
49901;DHT22;35789;48.414;12.768;2023-07-31T23:20:00;16.7;99.9
49901;DHT22;35789;48.414;12.768;2023-07-31T23:25:00;16.8;99.9
49901;DHT22;35789;48.414;12.768;2023-07-31T23:30:00;16.8;99.9
49901;DHT22;35789;48.414;12.768;2023-07-31T23:35:00;16.8;99.9
49901;DHT22;35789;48.414;12.768;2023-07-31T23:40:00;16.8;99.9
49901;DHT22;35789;48.414;12.768;2023-07-31T23:45:00;16.8;99.9
49901;DHT22;35789;48.414;12.768;2023-07-31T23:50:00;16.9;99.9
49901;DHT22;35789;48.414;12.768;2023-07-31T23:55:00;16.9;99.9
